Time;durP1;ratioP1;P1;durP2;ratioP2;P2;SDS_P1;SDS_P2;PMS_P1;PMS_P2;Temp;Humidity;BMP_temperature;BMP_pressure;BME280_temperature;BME280_humidity;BME280_pressure;Samples;Min_cycle;Max_cycle;Signal;HPM_P1;HPM_P2
2022/08/23 00:01:19;;;;;;;5.30;4.05;;;17.80;99.90;;;;;;4967840;28;20041;-75
2022/08/23 00:03:45;;;;;;;7.25;4.30;;;17.80;99.90;;;;;;4964278;29;20226;-74
2022/08/23 00:06:11;;;;;;;5.88;4.80;;;17.80;99.90;;;;;;4964774;29;20027;-75
2022/08/23 00:08:37;;;;;;;5.00;4.40;;;17.80;99.90;;;;;;4964589;29;20485;-75
2022/08/23 00:11:03;;;;;;;5.23;4.77;;;17.70;99.90;;;;;;4964418;29;20039;-74
2022/08/23 00:13:30;;;;;;;5.88;4.95;;;17.70;99.90;;;;;;4964353;29;20296;-74
2022/08/23 00:15:57;;;;;;;5.97;4.97;;;17.60;99.90;;;;;;4964736;29;20038;-74
2022/08/23 00:18:23;;;;;;;7.80;4.95;;;17.60;99.90;;;;;;4965515;29;20061;-74
2022/08/23 00:20:49;;;;;;;6.40;4.60;;;17.60;99.90;;;;;;4964466;29;20226;-74
2022/08/23 00:23:15;;;;;;;5.75;5.15;;;17.60;99.90;;;;;;4964239;29;20023;-74
2022/08/23 00:25:41;;;;;;;7.23;5.10;;;17.60;99.90;;;;;;4967404;28;20041;-74
2022/08/23 00:28:08;;;;;;;5.33;4.60;;;17.50;99.90;;;;;;4967649;28;20284;-74
2022/08/23 00:30:34;;;;;;;;;;;17.50;99.90;;;;;;4968102;28;20326;-74
2022/08/23 00:33:00;;;;;;;7.53;4.60;;;17.50;99.90;;;;;;4967207;28;19906;-74
2022/08/23 00:35:26;;;;;;;5.90;4.57;;;17.50;99.90;;;;;;4967367;28;20022;-74
2022/08/23 00:37:52;;;;;;;6.57;4.57;;;17.40;99.90;;;;;;4967406;28;20022;-74
2022/08/23 00:40:18;;;;;;;7.97;5.13;;;17.40;99.90;;;;;;4967309;28;20085;-74
2022/08/23 00:49:16;;;;;;;5.68;4.57;;;17.20;99.90;;;;;;4957238;28;20067;-74
2022/08/23 00:51:56;;;;;;;7.23;4.33;;;17.20;99.90;;;;;;4967183;28;20090;-74
2022/08/23 00:54:23;;;;;;;5.30;4.28;;;17.20;99.90;;;;;;4966421;28;20026;-74
2022/08/23 00:56:49;;;;;;;7.72;5.18;;;17.10;99.90;;;;;;4982923;28;20247;-74
2022/08/23 00:59:15;;;;;;;8.37;5.13;;;17.10;99.90;;;;;;4982598;28;20023;-74
2022/08/23 01:01:42;;;;;;;5.67;4.60;;;17.10;99.90;;;;;;4983222;28;20026;-74
2022/08/23 01:04:10;;;;;;;6.95;4.70;;;17.00;99.90;;;;;;4982837;28;20103;-74
2022/08/23 01:07:03;;;;;;;6.00;4.93;;;17.00;99.90;;;;;;4983267;28;20033;-72
2022/08/23 01:09:29;;;;;;;10.13;5.00;;;16.90;99.90;;;;;;4966524;28;20094;-72
2022/08/23 01:12:29;;;;;;;6.27;4.83;;;16.90;99.90;;;;;;4984043;28;20050;-71
2022/08/23 01:15:23;;;;;;;5.88;5.05;;;16.80;99.90;;;;;;4954151;28;20022;-72
2022/08/23 01:18:20;;;;;;;6.15;5.00;;;16.80;99.90;;;;;;4933525;28;20038;-72
2022/08/23 01:21:12;;;;;;;8.02;5.18;;;16.80;99.90;;;;;;4946521;28;20058;-72
2022/08/23 01:23:54;;;;;;;7.03;5.13;;;16.70;99.90;;;;;;4968559;28;20042;-71
2022/08/23 01:26:21;;;;;;;6.30;4.55;;;16.60;99.90;;;;;;4931495;29;20031;-71
2022/08/23 01:28:47;;;;;;;12.30;5.32;;;16.70;99.90;;;;;;4963357;29;20066;-72
2022/08/23 01:31:13;;;;;;;7.17;5.07;;;16.60;99.90;;;;;;4964374;29;20047;-72
2022/08/23 01:33:40;;;;;;;7.63;4.78;;;16.60;99.90;;;;;;4963152;29;20046;-72
2022/08/23 01:36:08;;;;;;;8.35;5.45;;;16.60;99.90;;;;;;4963305;29;20086;-72
2022/08/23 01:38:34;;;;;;;7.03;5.22;;;16.60;99.90;;;;;;5017398;23;20043;-68
2022/08/23 01:41:00;;;;;;;8.23;4.43;;;16.60;99.90;;;;;;4963822;28;20031;-69
2022/08/23 01:43:25;;;;;;;5.60;5.07;;;16.50;99.90;;;;;;4963911;28;20322;-69
2022/08/23 01:45:51;;;;;;;6.70;5.07;;;16.50;99.90;;;;;;4964246;29;20047;-68
2022/08/23 01:48:18;;;;;;;8.60;5.40;;;16.50;99.90;;;;;;4982132;28;20047;-69
2022/08/23 01:50:44;;;;;;;8.20;4.93;;;16.40;99.90;;;;;;4976009;28;20275;-68
2022/08/23 01:53:10;;;;;;;11.03;5.23;;;16.40;99.90;;;;;;4944692;29;20223;-69
2022/08/23 01:55:36;;;;;;;6.80;5.13;;;16.40;99.90;;;;;;4944391;29;20247;-68
2022/08/23 01:58:02;;;;;;;5.53;5.00;;;16.30;99.90;;;;;;4960161;29;20035;-71
2022/08/23 02:00:32;;;;;;;6.85;5.15;;;16.30;99.90;;;;;;4959717;29;20039;-68
2022/08/23 02:02:59;;;;;;;9.27;5.22;;;16.30;99.90;;;;;;4944697;29;20334;-68
2022/08/23 02:05:25;;;;;;;7.22;5.05;;;16.30;99.90;;;;;;4944803;29;20028;-68
2022/08/23 02:07:51;;;;;;;8.07;5.30;;;16.30;99.90;;;;;;4944555;29;20050;-68
2022/08/23 02:10:17;;;;;;;6.87;5.57;;;16.20;99.90;;;;;;4944445;29;20027;-68
2022/08/23 02:12:43;;;;;;;6.33;5.23;;;16.20;99.90;;;;;;4944614;29;20039;-68
2022/08/23 02:15:09;;;;;;;6.53;4.57;;;16.10;99.90;;;;;;4944888;29;20035;-67
2022/08/23 02:17:35;;;;;;;7.07;5.78;;;16.10;99.90;;;;;;4944801;29;20157;-68
2022/08/23 02:20:04;;;;;;;7.47;5.80;;;16.10;99.90;;;;;;4944737;29;20116;-68
2022/08/23 02:22:30;;;;;;;7.35;5.47;;;16.10;99.90;;;;;;4944314;29;20096;-69
2022/08/23 02:24:56;;;;;;;6.57;5.47;;;16.10;99.90;;;;;;4944383;29;20062;-69
2022/08/23 02:27:21;;;;;;;8.13;5.93;;;16.00;99.90;;;;;;4944550;29;20552;-68
2022/08/23 02:29:48;;;;;;;8.57;5.27;;;16.00;99.90;;;;;;4975499;28;20370;-69
2022/08/23 02:32:15;;;;;;;10.18;5.65;;;16.00;99.90;;;;;;4944557;29;20023;-69
2022/08/23 02:34:41;;;;;;;7.15;5.30;;;16.00;99.90;;;;;;4944352;29;20023;-69
2022/08/23 02:37:08;;;;;;;7.53;5.77;;;15.90;99.90;;;;;;4944200;29;20042;-69
2022/08/23 02:39:34;;;;;;;6.05;4.85;;;15.90;99.90;;;;;;4944526;29;20023;-69
2022/08/23 02:42:00;;;;;;;9.13;5.57;;;15.90;99.90;;;;;;4944513;29;20055;-68
2022/08/23 02:44:26;;;;;;;9.38;6.10;;;15.90;99.90;;;;;;4959161;29;20027;-68
2022/08/23 02:46:52;;;;;;;7.37;5.60;;;15.90;99.90;;;;;;4944411;29;20035;-68
2022/08/23 02:49:17;;;;;;;6.23;4.67;;;15.80;99.90;;;;;;4944437;29;20031;-69
2022/08/23 02:51:45;;;;;;;7.70;5.50;;;15.80;99.90;;;;;;4944454;29;20098;-69
2022/08/23 02:54:11;;;;;;;7.15;5.13;;;15.80;99.90;;;;;;4958783;29;20047;-68
2022/08/23 02:56:36;;;;;;;7.37;5.60;;;15.80;99.90;;;;;;4943879;29;20050;-69
2022/08/23 02:59:03;;;;;;;7.37;5.40;;;15.80;99.90;;;;;;4944288;29;20027;-69
2022/08/23 03:01:33;;;;;;;5.93;4.97;;;15.70;99.90;;;;;;4944423;29;20031;-69
2022/08/23 03:03:59;;;;;;;7.95;5.38;;;15.70;99.90;;;;;;4944160;29;20033;-68
2022/08/23 03:06:26;;;;;;;7.90;6.07;;;15.70;99.90;;;;;;4944397;29;20027;-69
2022/08/23 03:08:53;;;;;;;7.28;5.72;;;15.70;99.90;;;;;;4943980;29;20016;-68
2022/08/23 03:11:22;;;;;;;;;;;15.70;99.90;;;;;;4944730;29;20035;-68
2022/08/23 03:13:48;;;;;;;6.90;5.95;;;15.70;99.90;;;;;;4974161;28;20237;-69
2022/08/23 03:16:14;;;;;;;7.18;5.45;;;15.60;99.90;;;;;;4944289;29;20031;-68
2022/08/23 03:18:40;;;;;;;7.20;5.50;;;15.60;99.90;;;;;;4944115;29;20230;-68
2022/08/23 03:21:06;;;;;;;6.47;5.40;;;15.60;99.90;;;;;;4945031;29;20095;-69
2022/08/23 03:23:33;;;;;;;6.60;5.22;;;15.50;99.90;;;;;;4947166;29;20037;-68
2022/08/23 03:26:00;;;;;;;8.32;5.57;;;15.50;99.90;;;;;;4962302;28;20024;-68
2022/08/23 03:28:26;;;;;;;8.48;5.10;;;15.50;99.90;;;;;;4962348;29;20397;-69
2022/08/23 03:30:52;;;;;;;6.65;5.65;;;15.40;99.90;;;;;;4947517;29;20047;-69
2022/08/23 03:33:18;;;;;;;9.90;5.87;;;15.40;99.90;;;;;;4947310;29;20032;-68
2022/08/23 03:35:44;;;;;;;8.17;5.77;;;15.40;99.90;;;;;;4947350;29;20153;-69
2022/08/23 03:38:10;;;;;;;6.27;5.40;;;15.40;99.90;;;;;;4947000;29;20267;-69
2022/08/23 03:40:36;;;;;;;7.27;5.30;;;15.30;99.90;;;;;;4947285;29;20059;-69
2022/08/23 03:43:01;;;;;;;8.30;6.13;;;15.30;99.90;;;;;;4946987;29;20027;-68
2022/08/23 03:45:27;;;;;;;9.70;5.73;;;15.30;99.90;;;;;;4947211;29;20029;-68
2022/08/23 03:47:53;;;;;;;7.60;6.37;;;15.30;99.90;;;;;;4947118;29;20039;-68
2022/08/23 03:50:19;;;;;;;9.27;6.10;;;15.30;99.90;;;;;;4947040;29;20028;-68
2022/08/23 03:52:45;;;;;;;7.17;6.13;;;15.30;99.90;;;;;;4946615;29;20035;-68
2022/08/23 03:55:12;;;;;;;8.98;6.75;;;15.30;99.90;;;;;;4946386;29;20094;-67
2022/08/23 03:57:38;;;;;;;7.45;5.97;;;15.30;99.90;;;;;;4946925;29;20043;-67
2022/08/23 04:00:07;;;;;;;7.82;6.22;;;15.20;99.90;;;;;;4946953;29;20035;-68
2022/08/23 04:02:33;;;;;;;6.88;5.38;;;15.30;99.90;;;;;;4946840;29;20043;-68
2022/08/23 04:04:58;;;;;;;7.13;6.43;;;15.20;99.90;;;;;;4946571;29;20031;-69
2022/08/23 04:07:24;;;;;;;10.47;6.37;;;15.30;99.90;;;;;;4946745;29;20027;-68
2022/08/23 04:09:50;;;;;;;7.27;5.70;;;15.20;99.90;;;;;;4946928;29;20016;-68
2022/08/23 04:12:16;;;;;;;8.77;6.20;;;15.30;99.90;;;;;;4945329;29;20374;-68
2022/08/23 04:14:42;;;;;;;9.23;6.20;;;15.20;99.90;;;;;;4946444;29;20035;-68
2022/08/23 04:17:08;;;;;;;7.03;5.77;;;15.20;99.90;;;;;;4946585;29;20242;-67
2022/08/23 04:19:34;;;;;;;7.87;6.00;;;15.20;99.90;;;;;;4945746;29;20283;-68
2022/08/23 04:22:00;;;;;;;;;;;15.20;99.90;;;;;;4946571;29;20028;-69
2022/08/23 04:24:26;;;;;;;8.60;6.40;;;15.20;99.90;;;;;;4945401;29;19914;-67
2022/08/23 04:26:52;;;;;;;9.53;6.10;;;15.10;99.90;;;;;;4943581;29;20031;-69
2022/08/23 04:29:18;;;;;;;8.20;6.27;;;15.10;99.90;;;;;;4946480;29;20053;-69
2022/08/23 04:31:44;;;;;;;11.73;6.22;;;15.00;99.90;;;;;;4945997;29;20016;-69
2022/08/23 04:34:10;;;;;;;9.53;6.17;;;15.00;99.90;;;;;;4946014;29;20035;-68
2022/08/23 04:36:39;;;;;;;6.17;5.57;;;15.00;99.90;;;;;;4946378;29;20023;-68
2022/08/23 04:39:05;;;;;;;8.52;5.72;;;15.00;99.90;;;;;;4946083;29;20353;-68
2022/08/23 04:44:35;;;;;;;8.05;6.50;;;14.90;99.90;;;;;;4924567;29;20323;-68
2022/08/23 04:47:01;;;;;;;8.27;6.20;;;14.90;99.90;;;;;;4923849;29;20092;-68
2022/08/23 04:49:27;;;;;;;8.50;6.33;;;14.90;99.90;;;;;;4937370;29;20031;-68
2022/08/23 04:51:53;;;;;;;10.83;6.33;;;14.90;99.90;;;;;;4960462;28;20040;-67
2022/08/23 04:54:19;;;;;;;8.67;6.10;;;14.90;99.90;;;;;;4944672;29;20032;-68
2022/08/23 04:56:44;;;;;;;6.67;5.97;;;14.80;99.90;;;;;;4944056;29;20042;-67
2022/08/23 04:59:10;;;;;;;7.03;5.63;;;14.90;99.90;;;;;;4943805;29;20091;-66
2022/08/23 05:01:36;;;;;;;8.98;6.50;;;14.90;99.90;;;;;;4945427;29;20341;-68
2022/08/23 05:04:03;;;;;;;6.40;5.80;;;14.80;99.90;;;;;;4957047;29;20072;-68
2022/08/23 05:06:30;;;;;;;;;;;14.80;99.90;;;;;;4944219;29;20047;-67
2022/08/23 05:08:56;;;;;;;10.35;6.13;;;14.80;99.90;;;;;;4945633;29;19936;-68
2022/08/23 05:11:21;;;;;;;9.85;6.70;;;14.80;99.90;;;;;;4944305;29;20024;-67
2022/08/23 05:13:47;;;;;;;7.07;6.00;;;14.80;99.90;;;;;;4945323;29;20027;-68
2022/08/23 05:16:13;;;;;;;8.60;6.30;;;14.80;99.90;;;;;;4945577;29;20036;-67
2022/08/23 05:18:39;;;;;;;10.00;5.70;;;14.80;99.90;;;;;;4945437;29;20027;-68
2022/08/23 05:21:05;;;;;;;7.70;6.63;;;14.80;99.90;;;;;;4945320;29;20023;-68
2022/08/23 05:23:31;;;;;;;8.20;6.82;;;14.80;99.90;;;;;;4944048;29;20086;-68
2022/08/23 05:25:57;;;;;;;8.47;6.20;;;14.80;99.90;;;;;;4945072;29;20053;-68
2022/08/23 05:28:27;;;;;;;9.37;6.27;;;14.90;99.90;;;;;;4945391;29;20426;-70
2022/08/23 05:31:10;;;;;;;10.88;6.55;;;14.90;99.90;;;;;;4959535;29;20050;-69
2022/08/23 05:33:36;;;;;;;7.72;6.05;;;14.90;99.90;;;;;;4943667;29;20031;-69
2022/08/23 05:36:03;;;;;;;7.83;6.23;;;15.00;99.90;;;;;;4950174;29;20034;-69
2022/08/23 05:38:29;;;;;;;9.85;6.88;;;15.10;99.90;;;;;;4945785;29;20051;-69
2022/08/23 05:40:56;;;;;;;9.63;6.53;;;15.10;99.90;;;;;;4939210;29;20031;-70
2022/08/23 05:43:22;;;;;;;9.02;6.45;;;15.20;99.90;;;;;;4944124;29;20047;-69
2022/08/23 05:45:51;;;;;;;11.20;7.13;;;15.30;99.90;;;;;;4944905;29;20027;-69
2022/08/23 05:48:16;;;;;;;7.22;6.35;;;15.30;99.90;;;;;;4959300;28;20331;-69
2022/08/23 05:50:42;;;;;;;8.13;6.80;;;15.30;99.90;;;;;;4945002;29;20030;-69
2022/08/23 05:53:09;;;;;;;8.33;6.70;;;15.40;99.90;;;;;;4944747;29;20028;-69
2022/08/23 05:55:35;;;;;;;;;;;15.50;99.90;;;;;;4944340;29;20016;-70
2022/08/23 05:58:01;;;;;;;9.38;6.20;;;15.50;99.90;;;;;;4947372;29;19972;-69
2022/08/23 06:00:27;;;;;;;7.20;6.50;;;15.60;99.90;;;;;;4925848;29;20028;-70
2022/08/23 06:02:53;;;;;;;10.17;6.93;;;15.70;99.90;;;;;;4925468;29;20040;-69
2022/08/23 06:05:19;;;;;;;12.10;7.13;;;15.70;99.90;;;;;;4925875;29;20323;-70
2022/08/23 06:07:46;;;;;;;7.68;6.20;;;15.80;99.90;;;;;;4925685;29;20039;-70
2022/08/23 06:10:11;;;;;;;9.20;6.25;;;15.80;99.90;;;;;;4940440;29;20020;-70
2022/08/23 06:12:37;;;;;;;8.40;6.70;;;15.90;99.90;;;;;;4925344;29;20032;-69
2022/08/23 06:15:03;;;;;;;12.07;6.33;;;16.00;99.90;;;;;;4940371;29;20067;-69
2022/08/23 06:17:29;;;;;;;9.43;6.77;;;16.00;99.90;;;;;;4925672;29;20066;-72
2022/08/23 06:19:55;;;;;;;10.10;6.70;;;16.10;99.90;;;;;;4925700;29;20028;-72
2022/08/23 06:22:22;;;;;;;7.88;6.30;;;16.10;99.90;;;;;;4940221;29;20345;-72
2022/08/23 06:24:48;;;;;;;12.80;7.35;;;16.20;99.90;;;;;;4943171;28;20095;-72
2022/08/23 06:27:13;;;;;;;8.87;6.70;;;16.20;99.90;;;;;;4959243;29;20230;-72
2022/08/23 06:29:39;;;;;;;10.50;7.20;;;16.20;99.90;;;;;;4943189;29;20111;-72
2022/08/23 06:32:07;;;;;;;8.17;6.20;;;16.30;99.90;;;;;;4942547;29;20050;-72
2022/08/23 06:34:35;;;;;;;10.25;6.85;;;16.30;99.90;;;;;;4942783;29;20855;-72
2022/08/23 06:37:10;;;;;;;10.30;7.05;;;16.40;99.90;;;;;;4943714;29;20039;-72
2022/08/23 06:39:37;;;;;;;6.68;5.85;;;16.40;99.90;;;;;;4959093;29;20066;-72
2022/08/23 06:42:12;;;;;;;9.50;6.22;;;16.50;99.90;;;;;;4943148;29;20027;-72
2022/08/23 06:44:38;;;;;;;10.75;6.57;;;16.60;99.90;;;;;;4958905;29;20099;-72
2022/08/23 06:47:05;;;;;;;11.27;6.40;;;16.60;99.90;;;;;;4959263;29;20050;-71
2022/08/23 06:49:30;;;;;;;9.38;6.78;;;16.70;99.90;;;;;;4959215;29;20326;-72
2022/08/23 06:52:03;;;;;;;9.50;7.17;;;16.80;99.90;;;;;;4975335;28;20042;-71
2022/08/23 06:54:31;;;;;;;7.45;5.90;;;16.80;99.90;;;;;;4973671;28;20036;-72
2022/08/23 06:56:58;;;;;;;7.50;6.18;;;16.90;99.90;;;;;;4962402;29;20385;-72
2022/08/23 06:59:23;;;;;;;6.80;5.47;;;16.90;99.90;;;;;;4979031;28;20046;-72
2022/08/23 07:01:57;;;;;;;10.10;6.30;;;17.00;99.90;;;;;;4947949;29;20036;-72
2022/08/23 07:04:35;;;;;;;10.27;6.00;;;17.10;99.90;;;;;;4962648;29;20235;-75
2022/08/23 07:07:00;;;;;;;11.38;5.78;;;17.10;99.90;;;;;;4961569;29;20024;-76
2022/08/23 07:09:27;;;;;;;10.50;6.10;;;17.20;99.90;;;;;;4962495;29;20110;-75
2022/08/23 07:11:53;;;;;;;9.80;6.25;;;17.30;99.90;;;;;;4962360;29;20035;-75
2022/08/23 07:14:20;;;;;;;6.87;5.40;;;17.40;99.90;;;;;;4947568;29;20047;-76
2022/08/23 07:16:55;;;;;;;7.43;5.30;;;17.40;99.90;;;;;;4946537;29;20035;-76
2022/08/23 07:19:22;;;;;;;7.50;6.05;;;17.50;99.90;;;;;;4946575;29;20032;-76
2022/08/23 07:21:48;;;;;;;9.07;6.15;;;17.60;99.90;;;;;;4962152;29;20039;-76
2022/08/23 07:24:14;;;;;;;7.27;5.10;;;17.70;99.90;;;;;;4947398;29;20099;-76
2022/08/23 07:26:41;;;;;;;6.35;5.07;;;17.80;99.90;;;;;;4973295;28;20022;-76
2022/08/23 07:29:08;;;;;;;7.82;5.72;;;17.80;99.90;;;;;;4949787;29;20031;-76
2022/08/23 07:31:38;;;;;;;8.73;5.00;;;17.90;99.90;;;;;;4923661;29;20034;-76
2022/08/23 07:34:04;;;;;;;10.10;4.43;;;18.00;99.90;;;;;;4962014;29;20322;-76
2022/08/23 07:36:31;;;;;;;7.82;5.15;;;18.00;99.90;;;;;;4962062;29;20227;-76
2022/08/23 07:38:57;;;;;;;8.30;5.00;;;18.10;99.90;;;;;;4962044;29;20039;-76
2022/08/23 07:41:24;;;;;;;6.38;4.57;;;18.10;99.90;;;;;;4961707;29;20346;-76
2022/08/23 07:43:50;;;;;;;5.03;4.30;;;18.30;99.90;;;;;;4977787;28;20035;-76
2022/08/23 07:46:16;;;;;;;6.57;4.57;;;18.30;99.90;;;;;;4962065;29;20094;-76
2022/08/23 07:48:41;;;;;;;8.37;4.23;;;18.50;99.90;;;;;;4947231;29;20020;-76
2022/08/23 07:51:10;;;;;;;6.53;3.90;;;18.50;99.90;;;;;;4947102;29;20087;-76
2022/08/23 07:53:37;;;;;;;10.90;4.18;;;18.60;99.90;;;;;;4961462;29;20037;-76
2022/08/23 07:56:07;;;;;;;5.38;4.00;;;18.60;99.90;;;;;;4977890;28;20031;-76
2022/08/23 07:58:33;;;;;;;9.25;3.97;;;18.70;99.90;;;;;;4945779;29;20132;-76
2022/08/23 08:01:21;;;;;;;6.13;3.80;;;18.80;99.90;;;;;;4946833;29;20032;-76
2022/08/23 08:03:51;;;;;;;6.15;3.70;;;18.90;99.90;;;;;;4958369;29;20043;-76
2022/08/23 08:06:26;;;;;;;7.15;4.05;;;19.00;99.90;;;;;;4993091;28;20023;-76
2022/08/23 08:08:52;;;;;;;5.95;3.45;;;19.10;99.90;;;;;;4960528;29;20062;-76
2022/08/23 08:11:20;;;;;;;4.77;3.70;;;19.10;99.90;;;;;;4961466;29;20040;-68
2022/08/23 08:13:47;;;;;;;3.45;3.08;;;19.20;99.90;;;;;;4946209;29;20087;-69
2022/08/23 08:16:27;;;;;;;3.83;3.15;;;19.20;99.90;;;;;;4946689;29;20039;-68
2022/08/23 08:18:54;;;;;;;3.75;3.33;;;19.30;99.90;;;;;;4946545;29;20020;-69
2022/08/23 08:21:19;;;;;;;4.65;3.25;;;19.40;99.90;;;;;;4946468;29;20059;-68
2022/08/23 08:23:45;;;;;;;7.83;3.60;;;19.50;99.90;;;;;;4946403;29;20050;-68
2022/08/23 08:26:11;;;;;;;4.67;3.13;;;19.60;99.90;;;;;;4946342;29;20046;-68
2022/08/23 08:28:37;;;;;;;6.23;3.00;;;19.70;99.90;;;;;;4946465;29;20196;-68
2022/08/23 08:31:03;;;;;;;9.52;3.00;;;19.80;99.90;;;;;;4946355;29;20330;-69
2022/08/23 08:33:29;;;;;;;6.75;2.85;;;19.80;99.90;;;;;;4946139;29;20039;-68
2022/08/23 08:35:56;;;;;;;8.40;2.10;;;19.90;99.90;;;;;;4946294;29;20326;-68
2022/08/23 08:38:22;;;;;;;4.00;2.13;;;20.00;99.90;;;;;;4961008;29;20072;-69
2022/08/23 08:41:14;;;;;;;4.23;2.63;;;20.10;99.90;;;;;;4951558;29;20043;-66
2022/08/23 08:43:48;;;;;;;3.30;1.70;;;20.20;99.90;;;;;;4964036;29;20527;-69
2022/08/23 08:46:23;;;;;;;2.30;1.75;;;20.40;99.90;;;;;;4959600;29;20345;-67
2022/08/23 08:48:54;;;;;;;3.22;1.85;;;20.40;99.90;;;;;;4976602;28;20094;-68
2022/08/23 08:51:46;;;;;;;2.40;1.50;;;20.60;99.90;;;;;;4959992;29;20038;-68
2022/08/23 08:54:13;;;;;;;2.63;1.90;;;20.70;99.90;;;;;;4976511;28;20322;-68
2022/08/23 08:56:39;;;;;;;1.73;1.63;;;20.70;99.90;;;;;;4959908;29;20107;-68
2022/08/23 08:59:09;;;;;;;1.70;1.60;;;20.80;99.90;;;;;;4960688;29;20031;-68
2022/08/23 09:01:36;;;;;;;2.33;1.42;;;20.90;99.90;;;;;;4960702;29;20240;-68
2022/08/23 09:04:02;;;;;;;2.22;1.98;;;20.90;99.90;;;;;;4960379;29;20116;-68
2022/08/23 09:07:01;;;;;;;2.65;1.65;;;21.00;99.90;;;;;;4945778;29;20065;-68
2022/08/23 09:09:53;;;;;;;3.15;2.00;;;21.10;99.90;;;;;;4960022;29;20078;-68
2022/08/23 09:12:48;;;;;;;6.57;1.80;;;21.20;99.90;;;;;;4960280;29;20035;-67
2022/08/23 09:15:35;;;;;;;2.25;1.48;;;21.20;99.90;;;;;;4958932;29;20027;-68
2022/08/23 09:18:10;;;;;;;2.05;1.30;;;21.30;99.90;;;;;;4959769;28;20440;-68
2022/08/23 09:20:36;;;;;;;2.80;1.13;;;21.40;99.90;;;;;;4944979;29;20034;-68
2022/08/23 09:23:14;;;;;;;2.70;1.85;;;21.50;99.90;;;;;;4959884;29;20043;-68
2022/08/23 09:25:40;;;;;;;3.47;1.42;;;21.60;99.90;;;;;;4959860;29;20062;-68
2022/08/23 09:28:05;;;;;;;3.17;1.83;;;21.70;99.90;;;;;;4945102;29;20087;-68
2022/08/23 09:30:55;;;;;;;3.10;1.60;;;21.80;99.90;;;;;;4960145;29;20020;-68
2022/08/23 09:33:24;;;;;;;3.92;1.48;;;21.80;99.90;;;;;;4945046;29;20087;-68
2022/08/23 09:36:05;;;;;;;2.50;1.60;;;21.80;99.90;;;;;;4945119;29;20027;-68
2022/08/23 09:38:31;;;;;;;2.20;1.58;;;21.90;99.90;;;;;;4959851;29;20027;-68
2022/08/23 09:40:57;;;;;;;1.48;1.38;;;22.00;99.90;;;;;;4959672;29;20094;-68
2022/08/23 09:43:26;;;;;;;2.55;1.38;;;22.00;99.90;;;;;;4944812;29;20299;-71
2022/08/23 09:45:52;;;;;;;3.53;1.73;;;22.00;99.90;;;;;;4943838;29;20302;-74
2022/08/23 09:48:39;;;;;;;2.43;1.57;;;22.10;99.90;;;;;;4944929;29;20038;-74
2022/08/23 09:51:15;;;;;;;2.67;1.60;;;22.10;99.90;;;;;;4959807;29;20255;-74
2022/08/23 09:53:48;;;;;;;2.10;1.48;;;22.20;99.90;;;;;;4944686;29;20024;-74
2022/08/23 09:56:21;;;;;;;2.78;1.05;;;22.30;99.90;;;;;;4974125;28;20046;-74
2022/08/23 09:58:49;;;;;;;2.92;1.25;;;22.30;96.90;;;;;;4975650;28;20062;-74
2022/08/23 10:01:25;;;;;;;2.20;1.20;;;22.40;96.70;;;;;;4943702;29;20024;-74
2022/08/23 10:04:15;;;;;;;1.77;1.20;;;22.40;96.90;;;;;;4959588;29;20023;-74
2022/08/23 10:06:44;;;;;;;1.20;1.10;;;22.40;95.40;;;;;;4959360;29;20034;-74
2022/08/23 10:09:28;;;;;;;3.10;1.60;;;22.50;93.80;;;;;;4943742;29;20015;-73
2022/08/23 10:11:58;;;;;;;2.42;1.25;;;22.60;98.30;;;;;;4959507;29;20027;-74
2022/08/23 10:14:27;;;;;;;1.98;1.00;;;22.60;99.00;;;;;;4959475;29;20183;-74
2022/08/23 10:17:09;;;;;;;2.80;1.00;;;22.70;93.10;;;;;;4975635;28;20023;-74
2022/08/23 10:20:00;;;;;;;1.08;0.85;;;22.80;93.30;;;;;;4975315;28;20237;-74
2022/08/23 10:22:27;;;;;;;1.38;1.10;;;22.80;94.20;;;;;;4944606;29;20023;-74
2022/08/23 10:25:06;;;;;;;1.17;0.88;;;22.90;94.10;;;;;;4959231;29;20098;-74
2022/08/23 10:31:16;;;;;;;2.65;0.85;;;23.10;94.20;;;;;;4959210;28;20022;-73
2022/08/23 10:33:59;;;;;;;1.27;0.90;;;23.20;93.60;;;;;;4938059;29;20042;-74
2022/08/23 10:36:32;;;;;;;1.83;1.20;;;23.30;93.90;;;;;;4962765;29;20051;-75
2022/08/23 10:39:06;;;;;;;1.75;1.10;;;23.40;89.30;;;;;;4963145;29;20055;-74
2022/08/23 10:41:59;;;;;;;2.55;0.98;;;23.50;87.60;;;;;;4978969;28;20196;-75
2022/08/23 10:44:57;;;;;;;1.42;1.13;;;23.70;88.20;;;;;;4959995;29;20024;-74
2022/08/23 10:47:40;;;;;;;;;;;23.90;91.10;;;;;;4961455;28;20091;-74
2022/08/23 10:50:20;;;;;;;2.38;1.48;;;24.10;92.30;;;;;;4978492;28;19907;-74
2022/08/23 10:53:13;;;;;;;4.75;1.63;;;24.20;92.10;;;;;;4962307;29;20020;-74
2022/08/23 10:56:03;;;;;;;2.85;1.35;;;24.40;93.60;;;;;;4962926;29;20035;-74
2022/08/23 10:58:51;;;;;;;2.92;1.30;;;24.50;91.00;;;;;;4961305;28;20043;-68
2022/08/23 11:01:45;;;;;;;3.40;1.42;;;24.70;91.30;;;;;;4962705;29;20087;-68
2022/08/23 11:04:28;;;;;;;1.33;1.13;;;24.90;87.20;;;;;;4946575;29;20042;-68
2022/08/23 11:06:58;;;;;;;3.55;1.65;;;25.10;88.90;;;;;;4962676;29;20024;-69
2022/08/23 11:09:24;;;;;;;2.22;1.38;;;25.20;90.10;;;;;;4962732;29;20032;-68
2022/08/23 11:12:19;;;;;;;3.05;1.48;;;25.40;90.10;;;;;;4947646;29;20088;-68
2022/08/23 11:14:55;;;;;;;2.20;1.63;;;25.50;87.00;;;;;;4962214;29;20059;-69
2022/08/23 11:17:40;;;;;;;1.80;1.63;;;25.70;86.20;;;;;;4947443;29;20231;-68
2022/08/23 11:20:08;;;;;;;3.08;1.67;;;25.90;87.70;;;;;;4961790;29;20024;-68
2022/08/23 11:22:56;;;;;;;1.70;1.35;;;25.90;79.90;;;;;;4947526;29;20023;-69
2022/08/23 11:25:22;;;;;;;;;;;26.10;85.90;;;;;;4948026;29;20212;-68
2022/08/23 11:27:48;;;;;;;1.50;1.35;;;26.20;87.10;;;;;;4953858;28;19918;-68
2022/08/23 11:30:32;;;;;;;2.00;1.40;;;26.40;87.50;;;;;;4965523;29;20094;-68
2022/08/23 11:33:17;;;;;;;2.78;1.30;;;26.60;81.80;;;;;;4966378;29;20019;-68
2022/08/23 11:35:46;;;;;;;3.30;1.33;;;26.70;77.30;;;;;;4956115;29;20027;-69
2022/08/23 11:38:12;;;;;;;4.82;1.60;;;26.90;76.20;;;;;;4942136;29;20070;-69
2022/08/23 11:40:49;;;;;;;2.33;1.48;;;27.10;83.10;;;;;;4948731;29;20039;-69
2022/08/23 11:43:36;;;;;;;3.08;1.70;;;27.20;77.40;;;;;;4957627;28;20258;-69
2022/08/23 11:46:26;;;;;;;2.95;1.38;;;27.40;76.90;;;;;;4944372;29;20055;-69
2022/08/23 11:49:17;;;;;;;2.10;1.30;;;27.50;71.10;;;;;;4947088;29;20024;-68
2022/08/23 11:52:13;;;;;;;2.08;1.27;;;27.60;73.50;;;;;;4947169;29;20036;-69
2022/08/23 11:55:16;;;;;;;3.05;1.27;;;27.80;76.10;;;;;;4946805;29;20024;-69
2022/08/23 11:58:12;;;;;;;3.95;1.15;;;28.10;78.00;;;;;;4944841;29;20031;-68
2022/08/23 12:01:10;;;;;;;4.22;1.15;;;28.40;71.60;;;;;;4947047;29;20032;-69
2022/08/23 12:03:58;;;;;;;3.63;1.42;;;28.70;73.70;;;;;;4946794;29;20023;-69
2022/08/23 12:06:51;;;;;;;2.10;1.23;;;29.00;75.10;;;;;;4961762;29;20028;-68
2022/08/23 12:09:23;;;;;;;3.63;1.45;;;29.40;74.40;;;;;;4961408;29;20028;-67
2022/08/23 12:11:55;;;;;;;3.75;1.75;;;29.70;68.50;;;;;;4946535;29;20079;-66
2022/08/23 12:15:01;;;;;;;2.72;1.17;;;29.90;70.80;;;;;;4946530;29;20035;-67
2022/08/23 12:17:47;;;;;;;3.33;1.60;;;30.30;70.10;;;;;;4945559;29;20044;-68
2022/08/23 12:20:19;;;;;;;1.85;1.27;;;30.60;68.40;;;;;;4946401;29;20190;-68
2022/08/23 12:23:14;;;;;;;2.47;1.10;;;30.90;60.90;;;;;;4960570;29;20327;-67
2022/08/23 12:25:40;;;;;;;3.08;1.52;;;31.00;59.60;;;;;;4960630;29;20034;-68
2022/08/23 12:28:42;;;;;;;1.90;1.17;;;31.20;61.40;;;;;;4960779;28;20047;-67
2022/08/23 12:31:25;;;;;;;1.88;1.13;;;31.80;53.40;;;;;;4943652;29;20051;-68
2022/08/23 12:34:05;;;;;;;4.00;1.35;;;32.70;54.70;;;;;;4960358;29;20074;-68
2022/08/23 12:36:53;;;;;;;3.03;1.27;;;34.00;55.60;;;;;;4960872;29;20024;-68
2022/08/23 12:39:35;;;;;;;3.10;1.35;;;35.60;51.30;;;;;;4960225;29;20039;-67
2022/08/23 12:42:20;;;;;;;1.95;1.40;;;37.00;47.30;;;;;;4960685;29;20055;-68
2022/08/23 12:44:58;;;;;;;4.03;1.00;;;37.50;43.30;;;;;;4960786;29;20059;-68
2022/08/23 12:47:23;;;;;;;0.90;0.90;;;38.00;46.00;;;;;;4960826;29;20031;-68
2022/08/23 12:50:12;;;;;;;;;;;38.80;43.70;;;;;;4946479;29;20124;-65
2022/08/23 12:52:37;;;;;;;1.52;1.20;;;39.50;44.20;;;;;;4945829;29;20082;-66
2022/08/23 12:55:14;;;;;;;1.35;1.20;;;40.00;41.60;;;;;;4945684;29;20070;-65
2022/08/23 12:57:41;;;;;;;;;;;40.30;36.40;;;;;;4945516;29;20210;-66
2022/08/23 13:00:13;;;;;;;1.67;1.25;;;40.00;36.20;;;;;;4976719;28;19906;-66
2022/08/23 13:02:39;;;;;;;1.48;0.90;;;40.10;37.90;;;;;;4945575;29;20055;-66
2022/08/23 13:05:25;;;;;;;1.20;1.00;;;40.60;37.80;;;;;;4960431;29;20267;-66
2022/08/23 13:07:51;;;;;;;1.08;1.00;;;41.10;37.50;;;;;;4960513;29;20327;-67
2022/08/23 13:10:17;;;;;;;1.95;1.10;;;41.40;35.20;;;;;;4960649;29;20070;-66
2022/08/23 13:12:43;;;;;;;1.88;1.13;;;41.70;36.40;;;;;;4945334;29;20039;-67
2022/08/23 13:15:09;;;;;;;1.05;1.05;;;42.10;35.40;;;;;;4960173;29;20028;-67
2022/08/23 13:17:38;;;;;;;1.17;1.00;;;42.60;34.80;;;;;;4945511;29;20195;-67
2022/08/23 13:20:22;;;;;;;3.60;1.30;;;43.20;33.60;;;;;;4945354;29;20026;-67
2022/08/23 13:23:04;;;;;;;1.45;1.15;;;43.80;33.80;;;;;;4943990;29;20358;-67